createdAt,value
2022-08-26T00:02:20.757Z,19.63
2022-08-26T00:05:13.218Z,19.70
2022-08-26T00:08:03.185Z,19.20
2022-08-26T00:10:55.253Z,16.02
2022-08-26T00:13:47.992Z,19.17
2022-08-26T00:16:47.886Z,18.95
2022-08-26T00:19:39.548Z,17.10
2022-08-26T00:22:30.332Z,17.08
2022-08-26T00:25:20.226Z,13.07
2022-08-26T00:28:11.027Z,22.15
2022-08-26T00:31:00.974Z,20.40
2022-08-26T00:33:54.030Z,15.20
2022-08-26T00:36:46.293Z,20.52
2022-08-26T00:39:36.859Z,16.15
2022-08-26T00:42:26.579Z,15.38
2022-08-26T00:45:17.277Z,13.35
2022-08-26T00:48:08.411Z,14.07
2022-08-26T00:51:11.133Z,14.15
2022-08-26T00:54:10.788Z,13.65
2022-08-26T00:57:16.381Z,9.35
2022-08-26T01:00:12.854Z,15.95
2022-08-26T01:03:05.239Z,9.18
2022-08-26T01:06:01.222Z,12.50
2022-08-26T01:08:53.570Z,11.63
2022-08-26T01:11:44.134Z,13.05
2022-08-26T01:14:37.032Z,9.25
2022-08-26T01:17:27.078Z,11.93
2022-08-26T01:20:32.835Z,11.35
2022-08-26T01:23:22.949Z,15.50
2022-08-26T01:26:26.712Z,15.40
2022-08-26T01:29:20.202Z,12.70
2022-08-26T01:32:12.340Z,13.05
2022-08-26T01:35:02.152Z,15.88
2022-08-26T01:37:53.692Z,12.23
2022-08-26T01:40:47.311Z,14.82
2022-08-26T01:43:40.042Z,14.65
2022-08-26T01:46:30.466Z,19.35
2022-08-26T01:49:21.239Z,11.13
2022-08-26T01:52:14.616Z,8.70
2022-08-26T01:55:07.560Z,14.30
2022-08-26T01:58:00.561Z,11.70
2022-08-26T02:00:51.479Z,16.45
2022-08-26T02:04:06.290Z,19.88
2022-08-26T02:06:57.573Z,10.73
2022-08-26T02:09:48.563Z,10.32
2022-08-26T02:12:38.493Z,10.95
2022-08-26T02:15:28.716Z,12.13
2022-08-26T02:18:18.675Z,17.08
2022-08-26T02:21:09.899Z,11.20
2022-08-26T02:24:10.841Z,14.45
2022-08-26T02:27:02.580Z,13.85
2022-08-26T02:30:02.981Z,17.30
2022-08-26T02:32:53.496Z,12.20
2022-08-26T02:35:42.548Z,16.15
2022-08-26T02:38:32.910Z,14.27
2022-08-26T02:41:23.113Z,13.15
2022-08-26T02:44:13.170Z,14.45
2022-08-26T02:47:02.934Z,22.45
2022-08-26T02:49:53.681Z,14.50
2022-08-26T02:52:49.234Z,11.98
2022-08-26T02:55:40.815Z,16.77
2022-08-26T02:58:31.486Z,19.25
2022-08-26T03:01:26.385Z,12.68
2022-08-26T03:04:16.217Z,16.77
2022-08-26T03:07:07.008Z,16.23
2022-08-26T03:09:56.885Z,17.17
2022-08-26T03:12:48.169Z,16.73
2022-08-26T03:15:37.717Z,19.60
2022-08-26T03:18:27.818Z,18.85
2022-08-26T03:21:19.549Z,23.90
2022-08-26T03:24:12.627Z,37.20
2022-08-26T03:27:05.797Z,18.45
2022-08-26T03:30:15.192Z,23.42
2022-08-26T03:33:06.480Z,17.80
2022-08-26T03:35:57.105Z,18.95
2022-08-26T03:38:46.670Z,18.10
2022-08-26T03:41:38.048Z,18.05
2022-08-26T03:44:30.854Z,17.23
2022-08-26T03:47:21.601Z,15.93
2022-08-26T03:50:15.456Z,16.17
2022-08-26T03:53:07.478Z,16.17
2022-08-26T03:56:02.639Z,14.85
2022-08-26T03:58:52.344Z,16.63
2022-08-26T04:01:43.649Z,13.50
2022-08-26T04:04:33.630Z,11.52
2022-08-26T04:07:23.435Z,14.82
2022-08-26T04:10:20.338Z,17.80
2022-08-26T04:13:10.328Z,18.08
2022-08-26T04:15:59.857Z,14.70
2022-08-26T04:18:49.040Z,10.88
2022-08-26T04:21:39.906Z,17.85
2022-08-26T04:24:30.923Z,15.10
2022-08-26T04:27:19.931Z,17.33
2022-08-26T04:30:10.365Z,11.48
2022-08-26T04:33:00.299Z,16.70
2022-08-26T04:35:51.400Z,14.05
2022-08-26T04:38:42.880Z,14.18
2022-08-26T04:41:34.606Z,12.75
2022-08-26T04:44:27.088Z,13.77
2022-08-26T04:47:16.980Z,13.82
2022-08-26T04:50:10.984Z,11.85
2022-08-26T04:53:00.910Z,11.77
2022-08-26T04:55:52.417Z,12.68
2022-08-26T04:58:49.836Z,16.38
2022-08-26T05:01:39.783Z,16.10
2022-08-26T05:04:29.848Z,17.17
2022-08-26T05:07:22.204Z,14.23
2022-08-26T05:10:12.807Z,12.68
2022-08-26T05:13:05.142Z,14.60
2022-08-26T05:16:05.643Z,12.88
2022-08-26T05:18:56.154Z,13.55
2022-08-26T05:21:46.010Z,19.90
2022-08-26T05:24:37.659Z,13.10
2022-08-26T05:27:30.898Z,15.93
2022-08-26T05:30:25.830Z,14.23
2022-08-26T05:33:16.187Z,18.75
2022-08-26T05:36:16.884Z,10.80
2022-08-26T05:39:10.515Z,10.88
2022-08-26T05:42:00.949Z,14.13
2022-08-26T05:44:56.271Z,13.02
2022-08-26T05:47:46.261Z,13.90
2022-08-26T05:50:42.247Z,15.88
2022-08-26T05:53:33.397Z,14.10
2022-08-26T05:56:27.562Z,11.25
2022-08-26T05:59:17.226Z,17.27
2022-08-26T06:02:16.085Z,19.60
2022-08-26T06:05:07.588Z,18.60
2022-08-26T06:08:15.383Z,19.58
2022-08-26T06:11:18.373Z,18.67
2022-08-26T06:14:09.265Z,10.20
2022-08-26T06:16:59.156Z,13.95
2022-08-26T06:19:49.394Z,15.77
2022-08-26T06:22:57.321Z,14.27
2022-08-26T06:25:51.855Z,17.23
2022-08-26T06:28:43.618Z,12.30
2022-08-26T06:31:37.253Z,14.00
2022-08-26T06:34:30.913Z,13.48
2022-08-26T06:37:23.836Z,15.00
2022-08-26T06:40:14.172Z,14.60
2022-08-26T06:43:04.162Z,8.65
2022-08-26T06:46:01.235Z,14.93
2022-08-26T06:48:56.268Z,11.98
2022-08-26T06:51:46.907Z,18.27
2022-08-26T06:54:44.420Z,15.93
2022-08-26T06:57:35.703Z,17.90
2022-08-26T07:00:29.559Z,21.80
2022-08-26T07:03:22.337Z,14.88
2022-08-26T07:06:12.361Z,21.85
2022-08-26T07:09:09.821Z,17.30
2022-08-26T07:12:02.644Z,18.15
2022-08-26T07:14:53.076Z,11.52
2022-08-26T07:17:43.717Z,18.17
2022-08-26T07:20:35.490Z,8.50
2022-08-26T07:23:25.476Z,11.73
2022-08-26T07:26:21.747Z,12.00
2022-08-26T07:29:16.172Z,14.65
2022-08-26T07:32:07.769Z,13.30
2022-08-26T07:34:57.311Z,16.45
2022-08-26T07:37:46.593Z,13.60
2022-08-26T07:40:36.670Z,13.45
2022-08-26T07:43:26.379Z,14.57
2022-08-26T07:46:29.926Z,11.27
2022-08-26T07:49:20.877Z,14.88
2022-08-26T07:52:11.138Z,20.55
2022-08-26T07:55:03.642Z,17.67
2022-08-26T07:57:53.205Z,17.23
2022-08-26T08:00:43.166Z,41.85
2022-08-26T08:03:34.388Z,21.77
2022-08-26T08:06:27.294Z,21.73
2022-08-26T08:09:22.412Z,15.35
2022-08-26T08:12:15.423Z,16.20
2022-08-26T08:15:06.064Z,12.48
2022-08-26T08:17:58.876Z,17.15
2022-08-26T08:20:54.653Z,16.52
2022-08-26T08:23:48.672Z,16.75
2022-08-26T08:26:38.533Z,19.52
2022-08-26T08:29:30.978Z,13.90
2022-08-26T08:32:20.539Z,13.02
2022-08-26T08:35:14.593Z,13.52
2022-08-26T08:38:05.790Z,12.85
2022-08-26T08:40:57.162Z,14.65
2022-08-26T08:43:47.778Z,11.45
2022-08-26T08:46:39.078Z,10.20
2022-08-26T08:49:29.658Z,13.43
2022-08-26T08:52:33.603Z,9.57
2022-08-26T08:55:23.321Z,11.50
2022-08-26T08:58:22.070Z,18.08
2022-08-26T09:01:35.298Z,17.25
2022-08-26T09:04:28.264Z,16.52
2022-08-26T09:07:42.621Z,14.00
2022-08-26T09:10:43.637Z,16.20
2022-08-26T09:13:34.291Z,16.30
2022-08-26T09:16:36.764Z,21.95
2022-08-26T09:19:35.077Z,22.48
2022-08-26T09:22:38.494Z,19.67
2022-08-26T09:25:27.974Z,17.60
2022-08-26T09:28:21.081Z,19.42
2022-08-26T09:31:25.211Z,21.10
2022-08-26T09:34:23.567Z,21.80
2022-08-26T09:37:13.146Z,16.80
2022-08-26T09:40:38.329Z,24.67
2022-08-26T09:43:30.344Z,25.77
2022-08-26T09:46:28.736Z,33.75
2022-08-26T09:49:38.771Z,28.90
2022-08-26T09:52:29.235Z,15.98
2022-08-26T09:55:25.692Z,26.98
2022-08-26T09:58:34.342Z,16.75
2022-08-26T10:01:45.294Z,23.38
2022-08-26T10:04:35.787Z,18.48
2022-08-26T10:07:52.808Z,20.80
2022-08-26T10:10:44.080Z,20.90
2022-08-26T10:13:43.156Z,23.88
2022-08-26T10:16:49.148Z,25.67
2022-08-26T10:19:56.803Z,25.38
2022-08-26T10:22:52.039Z,25.27
2022-08-26T10:25:59.234Z,23.95
2022-08-26T10:28:50.242Z,19.88
2022-08-26T10:31:43.422Z,20.35
2022-08-26T10:34:36.281Z,29.40
2022-08-26T10:37:28.547Z,17.95
2022-08-26T10:40:49.085Z,17.60
2022-08-26T10:43:47.681Z,21.95
2022-08-26T10:46:44.762Z,18.35
2022-08-26T10:49:34.128Z,16.95
2022-08-26T10:52:38.570Z,16.02
2022-08-26T10:56:03.908Z,24.70
2022-08-26T10:59:12.494Z,24.52
2022-08-26T11:02:30.857Z,19.48
2022-08-26T11:05:25.021Z,17.10
2022-08-26T11:08:25.364Z,16.08
2022-08-26T11:11:41.539Z,14.45
2022-08-26T11:14:53.748Z,18.40
2022-08-26T11:17:49.082Z,16.63
2022-08-26T11:20:44.969Z,17.90
2022-08-26T11:23:40.398Z,22.13
2022-08-26T11:26:55.611Z,19.88
2022-08-26T11:30:04.066Z,14.73
2022-08-26T11:32:59.837Z,10.80
2022-08-26T11:35:50.694Z,17.67
2022-08-26T11:38:45.256Z,23.05
2022-08-26T11:41:35.694Z,23.85
2022-08-26T11:44:42.002Z,31.83
2022-08-26T11:47:39.599Z,21.85
2022-08-26T11:50:31.173Z,30.60
2022-08-26T11:53:21.352Z,23.27
2022-08-26T11:56:31.526Z,19.27
2022-08-26T11:59:25.580Z,20.33
2022-08-26T12:02:18.284Z,13.35
2022-08-26T12:05:09.632Z,16.38
2022-08-26T12:08:10.060Z,17.08
2022-08-26T12:11:09.958Z,21.23
2022-08-26T12:14:01.764Z,15.60
2022-08-26T12:16:55.373Z,16.50
2022-08-26T12:19:45.939Z,16.38
2022-08-26T12:22:36.209Z,17.58
2022-08-26T12:25:26.683Z,14.05
2022-08-26T12:28:16.223Z,13.73
2022-08-26T12:31:08.325Z,17.98
2022-08-26T12:34:00.539Z,14.63
2022-08-26T12:36:54.564Z,15.52
2022-08-26T12:39:45.930Z,16.98
2022-08-26T12:42:44.024Z,15.82
2022-08-26T12:45:39.638Z,15.98
2022-08-26T12:48:33.422Z,20.08
2022-08-26T12:51:29.296Z,16.25
2022-08-26T12:54:23.013Z,15.18
2022-08-26T12:57:14.740Z,15.35
2022-08-26T13:00:32.239Z,15.18
2022-08-26T13:03:33.316Z,14.00
2022-08-26T13:06:41.730Z,18.30
2022-08-26T13:09:33.072Z,10.10
2022-08-26T13:12:42.391Z,14.02
2022-08-26T13:15:32.576Z,14.45
2022-08-26T13:18:26.908Z,16.05
2022-08-26T13:21:22.951Z,13.38
2022-08-26T13:24:15.056Z,14.35
2022-08-26T13:27:06.966Z,12.52
2022-08-26T13:29:59.202Z,12.93
2022-08-26T13:32:49.278Z,12.13
2022-08-26T13:35:38.789Z,12.82
2022-08-26T13:38:33.645Z,13.88
2022-08-26T13:41:29.248Z,15.25
2022-08-26T13:44:19.579Z,15.73
2022-08-26T13:47:10.065Z,12.80
2022-08-26T13:50:00.163Z,13.75
2022-08-26T13:52:50.025Z,18.73
2022-08-26T13:55:39.523Z,19.40
2022-08-26T13:58:29.475Z,19.63
2022-08-26T14:01:19.728Z,14.63
2022-08-26T14:04:12.611Z,17.23
2022-08-26T14:07:02.657Z,15.70
2022-08-26T14:09:52.179Z,15.43
2022-08-26T14:12:42.339Z,16.08
2022-08-26T14:15:36.823Z,18.80
2022-08-26T14:18:31.749Z,18.23
2022-08-26T14:21:22.402Z,16.60
2022-08-26T14:24:13.250Z,15.50
2022-08-26T14:27:03.597Z,16.77
2022-08-26T14:29:54.149Z,13.65
2022-08-26T14:32:46.978Z,12.80
2022-08-26T14:35:36.258Z,18.83
2022-08-26T14:38:27.407Z,15.93
2022-08-26T14:41:18.675Z,15.85
2022-08-26T14:44:12.927Z,14.05
2022-08-26T14:47:04.492Z,14.00
2022-08-26T14:49:54.394Z,16.60
2022-08-26T14:53:02.467Z,14.98
2022-08-26T14:55:53.391Z,18.45
2022-08-26T14:58:43.145Z,18.15
2022-08-26T15:01:33.964Z,16.38
2022-08-26T15:04:25.359Z,17.73
2022-08-26T15:07:15.836Z,20.05
2022-08-26T15:10:15.944Z,16.38
2022-08-26T15:13:06.392Z,18.10
2022-08-26T15:15:55.864Z,14.48
2022-08-26T15:18:46.423Z,20.27
2022-08-26T15:21:37.926Z,18.83
2022-08-26T15:24:30.250Z,20.70
2022-08-26T15:27:21.251Z,23.50
2022-08-26T15:30:12.769Z,26.38
2022-08-26T15:33:02.775Z,23.23
2022-08-26T15:35:52.633Z,24.95
2022-08-26T15:38:43.937Z,29.35
2022-08-26T15:41:34.918Z,24.98
2022-08-26T15:44:26.588Z,31.02
2022-08-26T15:47:16.533Z,28.98
2022-08-26T15:50:06.417Z,27.17
2022-08-26T15:52:55.681Z,30.63
2022-08-26T15:55:47.163Z,25.65
2022-08-26T15:58:38.226Z,27.38
2022-08-26T16:01:29.364Z,26.17
2022-08-26T16:04:20.019Z,36.08
2022-08-26T16:07:10.263Z,28.73
2022-08-26T16:09:59.796Z,27.35
2022-08-26T16:12:49.729Z,28.80
2022-08-26T16:15:40.656Z,23.85
2022-08-26T16:18:30.589Z,28.38
2022-08-26T16:21:22.888Z,29.65
2022-08-26T16:24:14.002Z,27.42
2022-08-26T16:27:04.792Z,29.80
2022-08-26T16:29:54.813Z,32.05
2022-08-26T16:32:47.463Z,29.17
2022-08-26T16:35:37.296Z,34.08
2022-08-26T16:38:27.562Z,32.75
2022-08-26T16:41:17.732Z,29.55
2022-08-26T16:44:15.470Z,32.83
2022-08-26T16:47:05.065Z,30.92
2022-08-26T16:49:54.980Z,33.30
2022-08-26T16:52:44.785Z,29.67
2022-08-26T16:55:34.644Z,32.67
2022-08-26T16:58:24.288Z,26.45
2022-08-26T17:01:14.095Z,24.80
2022-08-26T17:04:04.971Z,31.52
2022-08-26T17:06:54.986Z,29.60
2022-08-26T17:09:45.642Z,28.77
2022-08-26T17:12:37.562Z,25.70
2022-08-26T17:15:27.287Z,23.27
2022-08-26T17:18:17.392Z,23.52
2022-08-26T17:21:11.087Z,21.73
2022-08-26T17:24:00.876Z,17.00
2022-08-26T17:26:55.513Z,17.75
2022-08-26T17:29:45.971Z,18.73
2022-08-26T17:32:36.422Z,17.55
2022-08-26T17:35:26.527Z,16.00
2022-08-26T17:38:16.011Z,17.45
2022-08-26T17:41:09.962Z,12.68
2022-08-26T17:43:59.531Z,16.88
2022-08-26T17:46:49.550Z,12.25
2022-08-26T17:49:39.279Z,12.93
2022-08-26T17:52:29.547Z,10.27
2022-08-26T17:55:25.107Z,12.45
2022-08-26T17:58:15.320Z,13.15
2022-08-26T18:01:07.324Z,12.02
2022-08-26T18:04:00.458Z,11.40
2022-08-26T18:06:50.598Z,11.40
2022-08-26T18:09:40.589Z,10.07
2022-08-26T18:12:30.331Z,10.30
2022-08-26T18:15:20.359Z,12.45
2022-08-26T18:18:17.422Z,12.07
2022-08-26T18:21:17.341Z,15.60
2022-08-26T18:24:13.358Z,12.60
2022-08-26T18:27:03.612Z,13.90
2022-08-26T18:29:53.122Z,14.93
2022-08-26T18:32:42.987Z,10.73
2022-08-26T18:35:32.711Z,11.05
2022-08-26T18:38:22.503Z,13.90
2022-08-26T18:41:12.715Z,12.50
2022-08-26T18:44:02.420Z,11.02
2022-08-26T18:46:52.804Z,11.30
2022-08-26T18:49:44.197Z,11.95
2022-08-26T18:52:34.428Z,9.57
2022-08-26T18:55:24.369Z,10.43
2022-08-26T18:58:14.305Z,12.30
2022-08-26T19:01:04.234Z,12.55
2022-08-26T19:03:54.270Z,12.90
2022-08-26T19:06:44.360Z,9.95
2022-08-26T19:09:35.167Z,12.07
2022-08-26T19:12:27.140Z,8.82
2022-08-26T19:15:17.023Z,9.55
2022-08-26T19:18:08.847Z,8.75
2022-08-26T19:20:58.724Z,7.70
2022-08-26T19:23:48.856Z,8.55
2022-08-26T19:26:40.232Z,9.32
2022-08-26T19:29:33.909Z,6.85
2022-08-26T19:32:25.627Z,9.35
2022-08-26T19:35:16.327Z,11.25
2022-08-26T19:38:06.405Z,9.73
2022-08-26T19:40:55.686Z,8.32
2022-08-26T19:43:46.173Z,8.88
2022-08-26T19:49:31.992Z,6.85
2022-08-26T19:52:30.037Z,7.22
2022-08-26T19:55:21.320Z,9.13
2022-08-26T19:58:12.841Z,8.70
2022-08-26T20:01:03.158Z,9.43
2022-08-26T20:03:53.066Z,6.88
2022-08-26T20:06:42.842Z,7.88
2022-08-26T20:09:33.972Z,3.85
2022-08-26T20:12:24.188Z,8.73
2022-08-26T20:15:15.807Z,5.53
2022-08-26T20:18:05.178Z,6.57
2022-08-26T20:21:13.437Z,5.38
2022-08-26T20:24:13.396Z,5.75
2022-08-26T20:27:07.513Z,8.50
2022-08-26T20:29:58.675Z,6.38
2022-08-26T20:32:48.041Z,6.93
2022-08-26T20:35:38.242Z,7.22
2022-08-26T20:38:28.055Z,9.88
2022-08-26T20:41:18.694Z,16.67
2022-08-26T20:44:08.694Z,9.02
2022-08-26T20:47:00.506Z,11.55
2022-08-26T20:49:52.331Z,14.80
2022-08-26T20:52:44.737Z,10.18
2022-08-26T20:55:35.147Z,9.93
2022-08-26T20:58:27.743Z,9.65
2022-08-26T21:01:23.878Z,6.47
2022-08-26T21:04:17.099Z,8.48
2022-08-26T21:07:06.919Z,9.20
2022-08-26T21:09:56.576Z,7.95
2022-08-26T21:12:49.554Z,11.93
2022-08-26T21:15:39.811Z,7.82
2022-08-26T21:18:29.510Z,10.18
2022-08-26T21:21:19.177Z,8.60
2022-08-26T21:24:15.444Z,9.05
2022-08-26T21:27:05.278Z,7.65
2022-08-26T21:29:55.313Z,7.55
2022-08-26T21:32:45.091Z,7.85
2022-08-26T21:35:34.851Z,7.10
2022-08-26T21:38:24.911Z,4.82
2022-08-26T21:41:21.752Z,3.72
2022-08-26T21:44:16.515Z,7.10
2022-08-26T21:47:06.301Z,7.05
2022-08-26T21:49:55.972Z,8.68
2022-08-26T21:52:45.553Z,5.95
2022-08-26T21:55:37.859Z,10.27
2022-08-26T21:58:27.532Z,10.05
2022-08-26T22:01:24.540Z,7.78
2022-08-26T22:04:15.055Z,9.02
2022-08-26T22:07:06.364Z,10.13
2022-08-26T22:09:56.444Z,9.20
2022-08-26T22:12:45.893Z,8.48
2022-08-26T22:15:41.796Z,10.43
2022-08-26T22:18:32.215Z,10.02
2022-08-26T22:21:25.710Z,8.77
2022-08-26T22:24:15.995Z,12.65
2022-08-26T22:27:06.348Z,10.30
2022-08-26T22:29:56.228Z,11.23
2022-08-26T22:32:47.024Z,9.88
2022-08-26T22:35:42.230Z,16.83
2022-08-26T22:38:31.621Z,13.82
2022-08-26T22:41:21.399Z,14.68
2022-08-26T22:44:11.964Z,22.35
2022-08-26T22:47:01.697Z,16.30
2022-08-26T22:49:52.613Z,18.98
2022-08-26T22:52:42.732Z,13.77
2022-08-26T22:55:32.940Z,16.20
2022-08-26T22:58:23.146Z,9.90
2022-08-26T23:01:20.869Z,10.10
2022-08-26T23:04:12.586Z,10.70
2022-08-26T23:07:02.563Z,16.63
2022-08-26T23:09:52.771Z,13.63
2022-08-26T23:12:43.272Z,14.77
2022-08-26T23:15:33.604Z,12.55
2022-08-26T23:18:23.458Z,14.18
2022-08-26T23:21:14.012Z,11.90
2022-08-26T23:24:03.822Z,14.10
2022-08-26T23:26:53.524Z,14.73
2022-08-26T23:29:43.878Z,12.55
2022-08-26T23:32:34.233Z,16.67
2022-08-26T23:35:24.282Z,12.27
2022-08-26T23:38:15.393Z,16.77
2022-08-26T23:41:07.594Z,10.13
2022-08-26T23:44:01.604Z,12.20
2022-08-26T23:46:53.003Z,13.77
2022-08-26T23:49:43.963Z,13.57
2022-08-26T23:52:52.970Z,14.23
2022-08-26T23:55:45.953Z,11.05
2022-08-26T23:58:36.379Z,12.05
